Time;durP1;ratioP1;P1;durP2;ratioP2;P2;SDS_P1;SDS_P2;PMS_P1;PMS_P2;Temp;Humidity;BMP_temperature;BMP_pressure;BME280_temperature;BME280_humidity;BME280_pressure;Samples;Min_cycle;Max_cycle;Signal;HPM_P1;HPM_P2
2021/08/04 00:00:08;;;;;;;5.73;3.20;;;;;;;30.38;45.29;100713.69;128447;1083;64140;-84
2021/08/04 00:02:36;;;;;;;5.07;3.07;;;;;;;30.36;45.21;100708.42;128426;1082;62485;-85
2021/08/04 00:05:03;;;;;;;5.27;3.57;;;;;;;30.36;45.38;100713.86;128398;1084;64173;-86
2021/08/04 00:07:30;;;;;;;4.90;3.30;;;;;;;30.37;45.11;100714.73;128376;1084;64105;-85
2021/08/04 00:09:56;;;;;;;5.20;3.40;;;;;;;30.36;45.29;100713.86;128417;1084;64093;-86
2021/08/04 00:12:22;;;;;;;4.07;3.10;;;;;;;30.36;45.38;100710.30;128398;1084;64085;-85
2021/08/04 00:14:48;;;;;;;4.43;3.03;;;;;;;30.36;45.50;100707.58;128358;1082;64160;-85
2021/08/04 00:17:15;;;;;;;4.73;3.27;;;;;;;30.36;45.54;100715.75;128445;1084;65448;-85
2021/08/04 00:19:41;;;;;;;5.13;3.50;;;;;;;30.36;45.10;100718.47;128442;1083;64259;-85
2021/08/04 00:22:07;;;;;;;4.30;3.30;;;;;;;30.35;45.53;100714.88;128442;1084;64155;-86
2021/08/04 00:24:34;;;;;;;4.55;3.20;;;;;;;30.36;45.41;100716.59;128832;1084;64160;-85
2021/08/04 00:27:00;;;;;;;4.10;3.10;;;;;;;30.36;44.97;100718.47;128533;1084;64173;-85
2021/08/04 00:29:26;;;;;;;4.83;3.40;;;;;;;30.35;45.27;100720.33;128653;1084;62261;-85
2021/08/04 00:31:52;;;;;;;4.87;3.17;;;;;;;30.36;45.56;100718.47;129081;1084;64661;-85
2021/08/04 00:34:18;;;;;;;4.13;3.33;;;;;;;30.36;45.73;100724.76;128448;1084;64288;-85
2021/08/04 00:36:44;;;;;;;4.28;3.15;;;;;;;30.36;45.67;100726.64;128873;1084;64173;-86
2021/08/04 00:39:11;;;;;;;4.47;3.00;;;;;;;30.36;45.71;100729.37;128404;1083;64125;-86
2021/08/04 00:41:39;;;;;;;4.67;3.07;;;;;;;30.36;45.28;100732.09;128831;1084;64138;-86
2021/08/04 00:44:06;;;;;;;4.40;3.17;;;;;;;30.36;45.33;100738.38;128373;1084;63938;-87
2021/08/04 00:46:32;;;;;;;4.50;3.40;;;;;;;30.36;45.64;100732.92;128791;1082;64672;-86
2021/08/04 00:48:58;;;;;;;4.53;3.30;;;;;;;30.35;45.69;100736.66;128811;1084;64122;-86
2021/08/04 00:51:25;;;;;;;4.10;3.10;;;;;;;30.35;45.59;100733.94;128453;1084;64128;-86
2021/08/04 00:53:51;;;;;;;5.53;3.30;;;;;;;30.36;45.76;100729.37;128860;1084;64141;-86
2021/08/04 00:56:17;;;;;;;4.60;3.33;;;;;;;30.36;45.38;100726.64;128363;1084;64195;-86
2021/08/04 00:58:43;;;;;;;4.20;3.20;;;;;;;30.36;45.23;100732.09;128425;1082;64326;-86
2021/08/04 01:01:13;;;;;;;5.17;3.20;;;;;;;30.36;45.28;100721.20;128422;1082;64224;-86
2021/08/04 01:03:44;;;;;;;4.80;3.60;;;;;;;30.34;45.53;100726.82;128407;1084;64185;-86
2021/08/04 01:06:18;;;;;;;5.63;3.27;;;;;;;30.34;45.35;100734.12;128593;1083;64202;-86
2021/08/04 01:08:51;;;;;;;4.43;3.27;;;;;;;30.34;45.48;100728.67;128783;1082;64157;-86
2021/08/04 01:11:17;;;;;;;4.43;3.40;;;;;;;30.34;45.28;100732.27;128843;1082;64613;-87
2021/08/04 01:13:48;;;;;;;4.90;3.50;;;;;;;30.35;45.83;100738.55;128380;1084;64134;-86
2021/08/04 01:16:23;;;;;;;4.40;3.30;;;;;;;30.34;45.35;100737.71;128791;1082;64211;-85
2021/08/04 01:19:11;;;;;;;4.97;3.37;;;;;;;30.33;45.87;100725.11;128386;1084;64061;-86
2021/08/04 01:21:49;;;;;;;5.50;3.50;;;;;;;30.33;45.46;100726.97;128861;1084;64207;-86
2021/08/04 01:24:27;;;;;;;4.40;3.20;;;;;;;30.33;45.87;100733.28;128323;1084;64207;-85
2021/08/04 01:26:54;;;;;;;3.80;3.15;;;;;;;30.32;45.82;100731.58;128384;1084;64063;-85
2021/08/04 01:29:20;;;;;;;5.30;3.37;;;;;;;30.33;45.65;100724.24;128373;1082;64134;-85
2021/08/04 01:31:48;;;;;;;4.80;3.07;;;;;;;30.32;45.87;100723.41;128382;1084;64146;-85
2021/08/04 01:34:17;;;;;;;4.73;3.53;;;;;;;30.33;45.79;100726.97;128368;1082;64102;-85
2021/08/04 01:36:43;;;;;;;4.13;3.10;;;;;;;30.32;45.82;100726.13;128390;1083;64093;-86
2021/08/04 01:39:10;;;;;;;5.00;3.40;;;;;;;30.32;45.79;100731.58;128421;1082;64150;-86
2021/08/04 01:41:37;;;;;;;5.30;3.40;;;;;;;30.32;45.56;100733.45;128824;1083;64128;-86
2021/08/04 01:44:05;;;;;;;4.53;3.30;;;;;;;30.32;45.88;100728.84;128447;1082;64135;-84
2021/08/04 01:46:31;;;;;;;5.10;3.43;;;;;;;30.31;46.14;100727.14;128441;1084;64263;-85
2021/08/04 01:48:58;;;;;;;5.27;3.47;;;;;;;30.31;45.49;100724.42;128348;1084;64150;-85
2021/08/04 01:51:25;;;;;;;5.07;3.40;;;;;;;30.33;45.76;100732.41;128397;1084;63010;-85
2021/08/04 01:53:51;;;;;;;4.57;3.40;;;;;;;30.32;46.02;100730.73;128836;1084;64141;-87
2021/08/04 01:56:17;;;;;;;4.80;3.43;;;;;;;30.32;45.55;100730.73;128823;1082;64444;-86
2021/08/04 01:58:44;;;;;;;4.50;3.27;;;;;;;30.31;45.75;100732.59;128464;1084;64275;-86
2021/08/04 02:01:10;;;;;;;4.50;3.20;;;;;;;30.31;45.59;100732.59;128433;1084;64214;-87
2021/08/04 02:03:37;;;;;;;4.53;3.27;;;;;;;30.31;45.58;100737.20;128430;1084;64151;-85
2021/08/04 02:06:31;;;;;;;5.55;3.15;;;;;;;30.32;45.51;100747.08;128460;1084;63925;-86
2021/08/04 02:09:15;;;;;;;4.90;3.53;;;;;;;30.30;46.10;100743.66;128280;1086;64265;-86
2021/08/04 02:12:03;;;;;;;4.90;3.53;;;;;;;30.30;46.05;100749.97;128288;1087;64109;-86
2021/08/04 02:15:02;;;;;;;4.53;3.30;;;;;;;30.30;45.66;100746.38;127943;1086;64083;-85
2021/08/04 02:17:55;;;;;;;5.47;3.57;;;;;;;30.30;45.76;100755.42;128269;1086;62517;-85
2021/08/04 02:20:34;;;;;;;5.27;3.70;;;;;;;30.30;46.15;100749.11;127722;1090;64319;-85
2021/08/04 02:23:03;;;;;;;5.73;3.60;;;;;;;30.29;45.89;100752.84;127624;1090;64863;-84
2021/08/04 02:25:57;;;;;;;5.27;3.40;;;;;;;30.29;45.65;100752.84;127862;1090;64140;-86
2021/08/04 02:28:28;;;;;;;4.97;3.30;;;;;;;30.30;46.09;100751.83;127618;1090;64473;-85
2021/08/04 02:30:54;;;;;;;5.57;3.67;;;;;;;30.30;45.79;100749.11;127637;1089;64147;-86
2021/08/04 02:33:21;;;;;;;5.05;3.30;;;;;;;30.29;46.19;100755.56;127675;1090;64344;-86
2021/08/04 02:35:47;;;;;;;4.97;3.40;;;;;;;30.29;45.70;100752.84;127628;1090;64095;-85
2021/08/04 02:38:14;;;;;;;5.30;3.40;;;;;;;30.30;46.15;100755.42;127678;1090;64288;-86
2021/08/04 02:40:40;;;;;;;4.73;3.50;;;;;;;30.29;45.72;100770.05;127710;1090;64147;-86
2021/08/04 02:43:08;;;;;;;4.77;3.70;;;;;;;30.28;45.84;100765.62;127670;1090;64182;-85
2021/08/04 02:45:37;;;;;;;4.43;3.47;;;;;;;30.29;45.72;100767.33;127660;1087;64176;-85
2021/08/04 02:48:04;;;;;;;4.70;3.67;;;;;;;30.29;46.25;100761.88;127854;1087;64230;-85
2021/08/04 02:50:33;;;;;;;4.87;3.30;;;;;;;30.28;45.79;100760.17;127886;1087;64108;-85
2021/08/04 02:52:59;;;;;;;4.77;3.50;;;;;;;30.29;46.33;100755.56;127934;1087;64182;-86
2021/08/04 02:55:25;;;;;;;4.93;3.40;;;;;;;30.29;45.87;100758.29;127892;1087;64141;-86
2021/08/04 02:57:51;;;;;;;5.57;3.40;;;;;;;30.29;46.26;100766.45;128127;1084;64415;-86
2021/08/04 03:00:18;;;;;;;5.57;3.70;;;;;;;30.28;46.29;100760.17;128367;1084;64157;-86
2021/08/04 03:02:44;;;;;;;5.93;3.63;;;;;;;30.29;45.96;100763.73;128400;1084;64124;-85
2021/08/04 03:05:11;;;;;;;5.03;3.50;;;;;;;30.28;46.38;100762.89;128789;1084;64123;-86
2021/08/04 03:07:37;;;;;;;4.70;3.53;;;;;;;30.28;45.85;100762.89;128777;1083;64268;-85
2021/08/04 03:10:04;;;;;;;4.70;3.60;;;;;;;30.28;45.77;100764.78;128854;1082;64094;-86
2021/08/04 03:12:30;;;;;;;4.90;3.60;;;;;;;30.28;45.94;100767.50;128474;1084;63689;-87
2021/08/04 03:14:56;;;;;;;5.27;3.57;;;;;;;30.26;46.40;100763.08;128390;1082;64135;-85
2021/08/04 03:17:23;;;;;;;5.10;3.67;;;;;;;30.27;46.36;100769.36;128368;1083;64131;-86
2021/08/04 03:19:50;;;;;;;5.73;3.70;;;;;;;30.28;45.96;100772.95;128413;1083;64242;-86
2021/08/04 03:22:16;;;;;;;5.40;3.33;;;;;;;30.28;46.24;100775.67;128502;1084;64229;-86
2021/08/04 03:24:42;;;;;;;4.60;3.60;;;;;;;30.28;46.31;100775.67;128466;1084;64232;-86
2021/08/04 03:27:08;;;;;;;4.70;3.50;;;;;;;30.26;46.21;100773.96;128424;1084;64236;-86
2021/08/04 03:29:35;;;;;;;4.70;3.80;;;;;;;30.28;46.44;100778.39;128813;1084;64154;-88
2021/08/04 03:32:01;;;;;;;5.10;3.70;;;;;;;30.26;46.00;100776.69;128433;1084;64128;-85
2021/08/04 03:34:27;;;;;;;5.10;3.80;;;;;;;30.28;46.30;100781.12;128448;1082;64128;-87
2021/08/04 03:36:53;;;;;;;5.40;3.87;;;;;;;30.28;46.25;100776.52;128817;1084;64230;-86
2021/08/04 03:39:19;;;;;;;6.10;3.63;;;;;;;30.28;46.26;100781.12;128439;1083;64208;-85
2021/08/04 03:41:46;;;;;;;5.10;3.63;;;;;;;30.28;46.39;100775.67;128790;1082;64149;-86
2021/08/04 03:44:12;;;;;;;6.43;3.70;;;;;;;30.28;46.16;100790.13;128402;1082;64128;-86
2021/08/04 03:46:38;;;;;;;4.93;4.03;;;;;;;30.28;46.25;100783.84;128406;1084;64122;-86
2021/08/04 03:49:04;;;;;;;6.10;4.00;;;;;;;30.28;46.39;100786.56;128446;1082;64487;-86
2021/08/04 03:51:31;;;;;;;5.15;3.70;;;;;;;30.28;46.14;100786.56;128377;1084;64243;-87
2021/08/04 03:53:57;;;;;;;5.27;3.80;;;;;;;30.27;45.95;100799.30;128450;1084;64291;-86
2021/08/04 03:56:23;;;;;;;5.07;3.80;;;;;;;30.27;46.60;100804.75;128481;1084;64577;-86
2021/08/04 03:58:49;;;;;;;5.63;4.13;;;;;;;30.27;46.10;100793.86;128781;1084;64722;-86
2021/08/04 04:01:16;;;;;;;5.53;3.70;;;;;;;30.28;46.30;100792.01;128351;1083;64128;-86
2021/08/04 04:03:42;;;;;;;4.73;3.57;;;;;;;30.28;46.59;100792.84;128415;1082;64298;-85
2021/08/04 04:06:08;;;;;;;4.97;3.80;;;;;;;30.27;46.11;100796.58;128842;1083;64169;-86
2021/08/04 04:08:35;;;;;;;4.97;3.50;;;;;;;30.28;46.43;100801.02;128407;1084;64469;-85
2021/08/04 04:11:01;;;;;;;4.57;3.80;;;;;;;30.28;46.56;100802.91;128483;1082;64150;-85
2021/08/04 04:13:27;;;;;;;4.80;3.90;;;;;;;30.27;46.09;100804.75;128437;1084;64582;-86
2021/08/04 04:15:54;;;;;;;5.35;3.90;;;;;;;30.28;46.53;100803.73;128826;1084;64112;-86
2021/08/04 04:18:20;;;;;;;5.37;3.67;;;;;;;30.28;46.22;100802.91;128418;1084;61852;-86
2021/08/04 04:20:48;;;;;;;6.67;3.80;;;;;;;30.28;46.35;100808.34;128381;1084;64138;-86
2021/08/04 04:23:14;;;;;;;;;;;;;;;30.26;46.18;100809.36;128408;1084;64212;-87
2021/08/04 04:25:41;;;;;;;5.00;3.70;;;;;;;30.26;46.62;100811.21;128847;1084;64216;-85
2021/08/04 04:28:07;;;;;;;5.17;3.87;;;;;;;30.26;46.22;100801.19;128829;1083;64109;-86
2021/08/04 04:30:33;;;;;;;5.20;3.80;;;;;;;30.26;45.95;100811.21;128448;1082;64135;-86
2021/08/04 04:32:59;;;;;;;4.90;3.80;;;;;;;30.26;46.55;100811.21;128420;1084;64259;-86
2021/08/04 04:35:25;;;;;;;5.50;3.80;;;;;;;30.26;46.18;100806.64;128480;1082;64275;-86
2021/08/04 04:37:51;;;;;;;5.50;3.70;;;;;;;30.26;46.42;100809.36;128508;1084;64160;-86
2021/08/04 04:40:18;;;;;;;4.90;3.80;;;;;;;30.29;46.90;100812.75;128576;1084;64131;-84
2021/08/04 04:42:44;;;;;;;5.03;3.90;;;;;;;30.28;46.56;100816.52;128695;1084;64108;-85
2021/08/04 04:45:10;;;;;;;5.00;3.60;;;;;;;30.28;46.14;100814.63;128919;1084;62159;-85
2021/08/04 04:47:36;;;;;;;5.08;3.80;;;;;;;30.28;46.20;100817.35;128467;1084;64163;-85
2021/08/04 04:50:04;;;;;;;5.23;3.63;;;;;;;30.29;46.21;100823.63;128425;1082;64157;-86
2021/08/04 04:52:32;;;;;;;6.25;3.90;;;;;;;30.30;46.36;100822.63;128461;1082;64170;-85
2021/08/04 04:54:58;;;;;;;5.03;3.60;;;;;;;30.29;46.74;100824.50;128442;1084;64150;-86
2021/08/04 04:57:24;;;;;;;5.10;3.80;;;;;;;30.29;46.74;100823.63;128854;1083;64150;-85
2021/08/04 04:59:52;;;;;;;5.30;3.90;;;;;;;30.29;46.35;100823.63;128476;1084;64123;-86
2021/08/04 05:02:19;;;;;;;4.83;4.20;;;;;;;30.29;46.64;100829.08;128407;1084;64131;-85
2021/08/04 05:04:47;;;;;;;5.53;3.97;;;;;;;30.28;46.73;100825.52;128792;1084;64344;-86
2021/08/04 05:07:13;;;;;;;5.20;4.03;;;;;;;30.28;46.25;100819.23;128837;1082;64186;-86
2021/08/04 05:09:39;;;;;;;5.87;4.00;;;;;;;30.29;46.65;100826.36;128876;1084;64125;-86
2021/08/04 05:12:05;;;;;;;5.53;4.20;;;;;;;30.28;46.74;100836.41;128484;1084;64269;-86
2021/08/04 05:14:31;;;;;;;7.23;4.53;;;;;;;30.28;46.35;100843.74;128476;1084;64301;-87
2021/08/04 05:16:58;;;;;;;6.13;3.93;;;;;;;30.25;46.72;100848.49;128463;1082;64205;-86
2021/08/04 05:19:24;;;;;;;8.70;5.33;;;;;;;30.24;46.77;100846.78;128393;1084;64107;-86
2021/08/04 05:21:50;;;;;;;6.17;4.30;;;;;;;30.24;46.65;100846.78;128848;1083;62327;-85
2021/08/04 05:24:17;;;;;;;7.37;4.70;;;;;;;30.24;46.65;100852.23;128378;1082;64278;-86
2021/08/04 05:26:44;;;;;;;7.18;4.78;;;;;;;30.24;46.68;100857.67;128439;1082;64224;-86
2021/08/04 05:29:10;;;;;;;6.60;4.60;;;;;;;30.23;46.28;100861.44;128865;1083;64198;-85
2021/08/04 05:31:36;;;;;;;5.53;4.23;;;;;;;30.23;46.43;100863.30;128474;1084;64179;-86
2021/08/04 05:34:02;;;;;;;5.83;4.50;;;;;;;30.22;46.83;100854.28;128451;1084;64255;-84
2021/08/04 05:36:28;;;;;;;8.47;5.97;;;;;;;30.21;46.28;100849.02;128453;1084;64093;-86
2021/08/04 05:38:57;;;;;;;7.77;5.70;;;;;;;30.22;46.36;100847.97;128420;1084;64179;-85
2021/08/04 05:41:24;;;;;;;8.60;5.27;;;;;;;30.21;46.69;100855.30;128458;1084;64377;-86
2021/08/04 05:43:50;;;;;;;5.80;4.77;;;;;;;30.21;46.36;100849.86;128452;1082;64278;-86
2021/08/04 05:46:16;;;;;;;10.30;6.47;;;;;;;30.21;46.54;100846.30;128455;1083;64164;-86
2021/08/04 05:48:43;;;;;;;9.30;5.63;;;;;;;30.20;46.39;100850.03;128784;1084;64115;-85
2021/08/04 05:51:09;;;;;;;9.07;6.67;;;;;;;30.20;46.53;100833.69;128704;1084;64352;-84
2021/08/04 05:53:59;;;;;;;8.40;5.70;;;;;;;30.20;46.63;100836.41;128297;1082;64156;-86
2021/08/04 05:56:25;;;;;;;8.73;5.80;;;;;;;30.19;46.15;100835.55;128162;1086;64192;-85
2021/08/04 05:58:52;;;;;;;7.50;5.67;;;;;;;30.20;46.63;100836.41;127800;1087;64310;-84
2021/08/04 06:01:18;;;;;;;11.20;7.40;;;;;;;30.19;46.19;100840.16;127882;1087;64166;-86
2021/08/04 06:03:44;;;;;;;10.43;6.83;;;;;;;30.19;46.53;100835.55;127830;1087;64411;-85
2021/08/04 06:06:11;;;;;;;10.35;6.15;;;;;;;30.20;46.27;100836.41;127920;1087;64594;-85
2021/08/04 06:08:37;;;;;;;8.17;5.47;;;;;;;30.19;46.49;100834.70;127763;1087;64141;-86
2021/08/04 06:11:03;;;;;;;6.90;5.23;;;;;;;30.20;46.55;100841.86;127829;1087;64127;-84
2021/08/04 06:13:30;;;;;;;8.97;5.63;;;;;;;30.21;46.41;100838.96;127825;1087;64332;-83
2021/08/04 06:15:57;;;;;;;7.77;5.50;;;;;;;30.22;46.57;100850.70;127767;1087;64395;-84
2021/08/04 06:18:24;;;;;;;8.47;5.70;;;;;;;30.22;46.53;100850.70;127852;1087;64427;-86
2021/08/04 06:20:51;;;;;;;8.97;6.20;;;;;;;30.21;45.98;100852.58;127738;1087;64128;-86
2021/08/04 06:23:17;;;;;;;7.80;6.20;;;;;;;30.21;46.56;100849.86;127767;1087;64623;-86
2021/08/04 06:25:44;;;;;;;6.93;5.63;;;;;;;30.23;46.07;100855.13;127812;1086;64124;-86
2021/08/04 06:28:10;;;;;;;9.73;6.77;;;;;;;30.23;46.70;100863.30;127693;1087;64136;-85
2021/08/04 06:30:36;;;;;;;12.70;8.07;;;;;;;30.23;46.13;100858.72;127701;1087;64110;-84
2021/08/04 06:33:03;;;;;;;14.67;9.50;;;;;;;30.22;46.13;100856.14;127756;1087;64163;-85
2021/08/04 06:35:29;;;;;;;13.23;9.60;;;;;;;30.19;46.14;100857.33;128204;1084;64201;-84
2021/08/04 06:37:55;;;;;;;13.50;9.83;;;;;;;30.18;46.54;100855.65;128235;1084;64770;-85
2021/08/04 06:40:22;;;;;;;14.37;9.67;;;;;;;30.16;46.20;100846.78;128130;1084;64334;-86
2021/08/04 06:42:48;;;;;;;16.27;10.07;;;;;;;30.15;46.39;100852.41;128187;1084;62112;-85
2021/08/04 06:45:15;;;;;;;15.60;10.35;;;;;;;30.12;46.70;100850.87;128136;1087;64154;-84
2021/08/04 06:47:42;;;;;;;16.00;9.87;;;;;;;30.12;46.88;100855.47;128150;1084;64264;-85
2021/08/04 06:50:09;;;;;;;16.23;10.37;;;;;;;30.10;46.86;100839.31;128116;1086;64137;-87
2021/08/04 06:52:35;;;;;;;15.50;10.75;;;;;;;30.11;46.91;100849.16;128116;1084;64240;-84
2021/08/04 06:55:02;;;;;;;16.53;10.57;;;;;;;30.12;46.82;100858.19;128712;1083;64626;-85
2021/08/04 06:57:28;;;;;;;12.37;10.47;;;;;;;30.12;46.76;100850.03;128350;1084;64301;-85
2021/08/04 06:59:55;;;;;;;14.33;9.90;;;;;;;30.11;46.93;100848.31;128390;1084;64189;-86
2021/08/04 07:02:21;;;;;;;11.45;7.80;;;;;;;30.12;47.07;100864.48;128314;1084;64281;-86
2021/08/04 07:04:47;;;;;;;12.37;9.33;;;;;;;30.12;47.01;100859.03;128282;1084;64120;-86
2021/08/04 07:07:18;;;;;;;14.70;10.10;;;;;;;30.12;46.57;100842.70;128334;1084;64339;-86
2021/08/04 07:09:45;;;;;;;16.67;10.23;;;;;;;30.12;46.78;100841.86;128250;1082;63021;-86
2021/08/04 07:12:11;;;;;;;14.43;9.60;;;;;;;30.12;47.02;100844.58;128325;1082;64490;-86
2021/08/04 07:14:38;;;;;;;10.30;8.40;;;;;;;30.12;47.14;100842.70;128300;1082;64260;-85
2021/08/04 07:17:05;;;;;;;13.60;9.43;;;;;;;30.15;46.92;100838.79;128198;1084;64178;-85
2021/08/04 07:19:32;;;;;;;16.50;10.33;;;;;;;30.15;46.79;100839.63;128732;1082;64134;-85
2021/08/04 07:21:59;;;;;;;11.63;9.80;;;;;;;30.16;46.60;100841.34;128375;1083;64133;-85
2021/08/04 07:24:26;;;;;;;11.50;8.47;;;;;;;30.17;46.98;100839.48;128363;1083;64127;-85
2021/08/04 07:26:53;;;;;;;12.00;9.07;;;;;;;30.18;47.04;100842.03;128362;1083;64165;-86
2021/08/04 07:29:19;;;;;;;12.40;9.77;;;;;;;30.19;46.50;100842.88;128372;1084;62933;-86
2021/08/04 07:31:46;;;;;;;15.67;10.40;;;;;;;30.19;46.94;100831.98;128392;1082;64262;-87
2021/08/04 07:34:15;;;;;;;12.30;9.00;;;;;;;30.19;47.04;100830.10;128346;1084;64092;-85
2021/08/04 07:36:41;;;;;;;16.33;10.67;;;;;;;30.20;46.52;100830.97;128798;1082;64128;-85
2021/08/04 07:39:07;;;;;;;14.03;9.30;;;;;;;30.19;46.57;100832.83;128350;1084;63019;-86
2021/08/04 07:41:34;;;;;;;14.10;9.43;;;;;;;30.20;47.08;100836.41;128413;1084;64310;-86
2021/08/04 07:44:00;;;;;;;14.67;9.57;;;;;;;30.22;47.03;100837.08;128382;1084;62633;-85
2021/08/04 07:46:27;;;;;;;12.87;9.70;;;;;;;30.23;47.11;100844.23;128789;1084;64970;-84
2021/08/04 07:48:53;;;;;;;15.83;9.50;;;;;;;30.24;47.15;100830.45;128366;1084;64197;-85
2021/08/04 07:51:19;;;;;;;12.40;9.63;;;;;;;30.26;47.05;100833.86;128441;1084;64469;-85
2021/08/04 07:53:45;;;;;;;12.25;8.90;;;;;;;30.28;47.03;100835.57;128821;1082;64132;-86
2021/08/04 07:56:12;;;;;;;13.67;9.47;;;;;;;30.29;46.66;100832.67;128823;1084;64102;-85
2021/08/04 07:58:38;;;;;;;11.53;9.10;;;;;;;30.30;46.85;100834.38;128432;1083;64606;-85
2021/08/04 08:01:04;;;;;;;14.10;9.03;;;;;;;30.32;47.00;100820.59;128520;1084;64552;-86
2021/08/04 08:03:31;;;;;;;12.57;9.10;;;;;;;30.33;46.52;100822.27;128396;1082;64117;-86
2021/08/04 08:05:57;;;;;;;10.67;8.83;;;;;;;30.34;47.14;100823.98;128438;1084;64205;-86
2021/08/04 08:08:23;;;;;;;11.40;9.10;;;;;;;30.34;47.01;100822.13;128451;1083;64133;-85
2021/08/04 08:10:51;;;;;;;12.60;8.70;;;;;;;30.35;46.81;100812.07;128448;1082;64304;-85
2021/08/04 08:13:18;;;;;;;13.33;8.83;;;;;;;30.36;47.00;100811.06;128395;1083;64217;-85
2021/08/04 08:15:44;;;;;;;13.53;9.60;;;;;;;30.37;46.94;100804.59;128807;1082;64133;-86
2021/08/04 08:18:10;;;;;;;13.87;9.37;;;;;;;30.37;47.05;100802.71;128377;1082;62545;-86
2021/08/04 08:20:37;;;;;;;11.93;9.40;;;;;;;30.39;47.00;100797.09;128354;1084;64176;-86
2021/08/04 08:23:04;;;;;;;14.17;9.87;;;;;;;30.39;46.63;100781.59;128372;1084;64265;-85
2021/08/04 08:25:32;;;;;;;12.60;9.37;;;;;;;30.40;46.55;100786.02;128391;1084;64061;-86
2021/08/04 08:27:59;;;;;;;10.80;9.07;;;;;;;30.41;46.61;100786.89;128381;1084;64150;-86
2021/08/04 08:30:26;;;;;;;11.73;9.37;;;;;;;30.41;46.85;100778.72;128463;1084;64150;-86
2021/08/04 08:32:53;;;;;;;13.60;9.70;;;;;;;30.42;46.92;100780.39;128404;1082;64133;-85
2021/08/04 08:35:20;;;;;;;15.43;10.23;;;;;;;30.43;46.57;100779.38;128474;1084;64140;-86
2021/08/04 08:37:47;;;;;;;11.47;10.00;;;;;;;30.43;46.85;100779.38;128332;1084;64136;-86
2021/08/04 08:40:14;;;;;;;13.57;10.80;;;;;;;30.44;47.07;100778.36;128452;1083;64202;-86
2021/08/04 08:42:40;;;;;;;13.27;9.80;;;;;;;30.44;46.63;100775.64;128445;1084;64266;-86
2021/08/04 08:45:07;;;;;;;12.13;9.60;;;;;;;30.46;46.61;100778.22;128902;1084;64164;-85
2021/08/04 08:47:33;;;;;;;14.53;9.87;;;;;;;30.46;47.11;100770.05;128509;1084;64147;-86
2021/08/04 08:50:00;;;;;;;13.17;10.17;;;;;;;30.45;46.83;100762.86;128931;1084;64147;-86
2021/08/04 08:52:26;;;;;;;14.00;9.70;;;;;;;30.46;47.00;100759.99;128659;1084;64227;-86
2021/08/04 08:54:53;;;;;;;12.43;9.50;;;;;;;30.46;46.93;100754.55;128600;1083;64553;-84
2021/08/04 08:57:19;;;;;;;13.93;9.57;;;;;;;30.46;46.76;100762.72;128413;1083;64144;-84
2021/08/04 08:59:45;;;;;;;13.87;9.60;;;;;;;30.47;46.83;100753.53;128460;1082;64488;-85
2021/08/04 09:02:11;;;;;;;12.07;9.80;;;;;;;30.48;46.62;100748.95;128466;1084;64278;-85
2021/08/04 09:04:37;;;;;;;11.70;9.35;;;;;;;30.48;46.78;100748.95;128498;1084;64128;-86
2021/08/04 09:07:04;;;;;;;11.60;9.83;;;;;;;30.48;46.97;100748.95;128447;1084;64087;-86
2021/08/04 09:09:31;;;;;;;13.97;9.80;;;;;;;30.48;46.83;100741.62;128413;1083;64131;-87
2021/08/04 09:12:24;;;;;;;13.27;9.67;;;;;;;30.48;46.87;100736.17;128450;1084;64179;-86
2021/08/04 09:14:51;;;;;;;12.00;9.57;;;;;;;30.47;46.57;100739.91;128350;1086;64161;-86
2021/08/04 09:17:18;;;;;;;13.07;9.67;;;;;;;30.49;46.87;100740.60;127954;1087;61670;-86
2021/08/04 09:19:45;;;;;;;10.83;9.57;;;;;;;30.48;46.81;100728.00;127898;1087;62423;-85
2021/08/04 09:22:22;;;;;;;12.47;9.73;;;;;;;30.49;46.61;100734.28;127947;1086;64148;-87
2021/08/04 09:25:03;;;;;;;10.78;9.13;;;;;;;30.48;46.42;100732.61;127998;1087;64102;-87
2021/08/04 09:27:45;;;;;;;10.70;9.60;;;;;;;30.48;46.46;100743.50;128243;1087;62505;-86
2021/08/04 09:30:14;;;;;;;14.87;9.97;;;;;;;30.48;46.70;100738.89;127887;1085;64231;-86
2021/08/04 09:32:40;;;;;;;12.95;9.30;;;;;;;30.49;46.88;100737.01;127949;1087;64251;-85
2021/08/04 09:35:10;;;;;;;10.50;9.40;;;;;;;30.50;46.37;100733.27;127904;1087;64150;-83
2021/08/04 09:37:37;;;;;;;11.33;9.33;;;;;;;30.50;46.71;100739.59;128245;1087;64155;-86
2021/08/04 09:40:04;;;;;;;12.63;9.90;;;;;;;30.50;46.77;100734.14;127839;1087;64133;-86
2021/08/04 09:42:44;;;;;;;11.37;8.63;;;;;;;30.50;46.47;100727.82;127907;1087;64178;-85
2021/08/04 09:45:11;;;;;;;10.93;9.67;;;;;;;30.51;46.32;100730.37;128287;1087;64275;-86
2021/08/04 09:47:37;;;;;;;11.87;9.23;;;;;;;30.50;46.77;100728.69;127988;1087;62192;-86
2021/08/04 09:50:07;;;;;;;11.80;9.57;;;;;;;30.51;46.15;100729.53;127961;1086;64104;-86
2021/08/04 09:52:33;;;;;;;12.70;9.67;;;;;;;30.50;46.69;100725.09;128557;1083;64099;-86
2021/08/04 09:55:13;;;;;;;12.27;9.20;;;;;;;30.51;46.39;100718.63;128847;1083;64310;-85
2021/08/04 09:57:45;;;;;;;12.63;9.20;;;;;;;30.50;46.35;100715.07;128400;1084;64526;-86
2021/08/04 10:00:13;;;;;;;10.93;9.23;;;;;;;30.50;46.13;100717.80;128467;1084;64332;-86
2021/08/04 10:02:39;;;;;;;11.40;9.53;;;;;;;30.51;46.31;100710.46;128478;1084;64239;-86
2021/08/04 10:05:18;;;;;;;10.53;9.40;;;;;;;30.50;46.52;100706.03;128406;1083;64147;-85
2021/08/04 10:08:10;;;;;;;9.45;8.40;;;;;;;30.49;46.15;100707.92;128829;1082;61665;-86
2021/08/04 10:10:44;;;;;;;11.47;8.90;;;;;;;30.50;46.02;100706.03;128495;1084;64160;-86
2021/08/04 10:13:16;;;;;;;12.40;9.40;;;;;;;30.50;46.47;100706.03;128854;1082;64164;-86
2021/08/04 10:15:45;;;;;;;12.63;9.53;;;;;;;30.50;46.12;100696.00;128464;1084;64431;-86
2021/08/04 10:18:21;;;;;;;11.33;10.13;;;;;;;30.50;46.01;100686.97;128472;1084;64165;-85
2021/08/04 10:20:53;;;;;;;11.20;9.13;;;;;;;30.49;45.88;100675.23;128527;1084;64179;-88
2021/08/04 10:23:20;;;;;;;10.00;8.97;;;;;;;30.49;45.99;100682.53;128382;1083;64272;-86
2021/08/04 10:25:47;;;;;;;12.37;9.63;;;;;;;30.50;46.31;100682.39;128428;1082;64172;-88
2021/08/04 10:28:14;;;;;;;10.13;8.77;;;;;;;30.49;45.89;100680.68;128394;1084;64466;-85
2021/08/04 10:30:42;;;;;;;11.95;9.15;;;;;;;30.49;46.17;100672.51;128472;1084;64307;-86
2021/08/04 10:33:08;;;;;;;10.67;9.33;;;;;;;30.49;45.89;100672.51;128379;1082;64182;-86
2021/08/04 10:35:36;;;;;;;10.33;8.93;;;;;;;30.48;45.78;100662.63;128439;1084;64122;-86
2021/08/04 10:38:15;;;;;;;;;;;;;;;30.48;45.86;100659.91;128502;1084;64142;-86
2021/08/04 10:40:43;;;;;;;12.67;8.87;;;;;;;30.47;45.88;100663.66;128779;1084;64205;-86
2021/08/04 10:43:09;;;;;;;11.93;8.63;;;;;;;30.47;45.63;100657.37;128486;1083;64098;-87
2021/08/04 10:45:35;;;;;;;10.70;9.00;;;;;;;30.47;45.66;100655.48;128888;1083;64353;-87
2021/08/04 10:48:23;;;;;;;12.60;9.27;;;;;;;30.49;45.92;100652.58;128373;1082;64128;-86
2021/08/04 10:51:25;;;;;;;11.00;8.75;;;;;;;30.47;45.60;100646.47;128842;1084;64099;-84
2021/08/04 10:54:14;;;;;;;10.90;8.83;;;;;;;30.48;45.74;100640.01;127839;1086;64131;-85
2021/08/04 10:56:49;;;;;;;11.33;9.10;;;;;;;30.47;45.69;100641.03;128363;1086;64186;-86
2021/08/04 10:59:35;;;;;;;10.30;8.63;;;;;;;30.47;45.97;100632.86;128333;1087;64112;-86
2021/08/04 11:02:10;;;;;;;10.43;9.10;;;;;;;30.47;46.00;100630.13;127967;1086;64130;-86
2021/08/04 11:04:56;;;;;;;11.47;9.03;;;;;;;30.47;45.60;100630.13;128293;1087;64137;-87
2021/08/04 11:07:25;;;;;;;10.37;8.70;;;;;;;30.46;46.06;100629.27;127886;1090;64147;-86
2021/08/04 11:09:58;;;;;;;11.57;8.77;;;;;;;30.47;45.47;100628.24;127954;1090;64140;-86
2021/08/04 11:12:27;;;;;;;10.23;8.83;;;;;;;30.47;45.69;100625.52;127932;1089;64134;-87
2021/08/04 11:14:55;;;;;;;10.93;8.57;;;;;;;30.46;45.60;100626.54;127863;1089;64176;-86
2021/08/04 11:17:23;;;;;;;11.03;8.67;;;;;;;30.47;45.96;100613.79;127922;1090;64117;-86
2021/08/04 11:19:58;;;;;;;10.38;8.65;;;;;;;30.47;45.42;100616.52;127928;1089;64131;-85